createdAt,value
2022-09-24T00:02:04.968Z,97708.44
2022-09-24T00:07:06.487Z,97711.72
2022-09-24T00:12:07.919Z,97703.47
2022-09-24T00:17:09.199Z,97691.91
2022-09-24T00:22:10.500Z,97687.13
2022-09-24T00:27:11.969Z,97688.78
2022-09-24T00:32:13.412Z,97675.34
2022-09-24T00:37:14.705Z,97691.47
2022-09-24T00:42:18.371Z,97673.72
2022-09-24T00:47:37.413Z,97663.41
2022-09-24T00:52:42.598Z,97667.53
2022-09-24T00:57:44.894Z,97657.66
2022-09-24T01:02:47.750Z,97654.75
2022-09-24T01:07:49.129Z,97645.66
2022-09-24T01:12:55.617Z,97651.22
2022-09-24T01:18:09.559Z,97651.66
2022-09-24T01:23:23.118Z,97643.19
2022-09-24T01:28:41.302Z,97640.69
2022-09-24T01:33:44.599Z,97636.38
2022-09-24T01:38:47.542Z,97637.63
2022-09-24T01:43:49.246Z,97632.47
2022-09-24T01:48:50.745Z,97623.81
2022-09-24T01:54:03.816Z,97631.22
2022-09-24T01:59:17.588Z,97626.91
2022-09-24T02:04:20.634Z,97615.94
2022-09-24T02:09:29.057Z,97623.81
2022-09-24T02:14:32.258Z,97621.97
2022-09-24T02:19:35.181Z,97623.84
2022-09-24T02:24:49.154Z,97625.47
2022-09-24T02:29:50.642Z,97624.22
2022-09-24T02:34:54.332Z,97622.78
2022-09-24T02:39:55.903Z,97613.31
2022-09-24T02:44:59.111Z,97609.16
2022-09-24T02:50:00.791Z,97608.53
2022-09-24T02:55:02.092Z,97603.59
2022-09-24T03:00:04.014Z,97598.22
2022-09-24T03:05:05.479Z,97602.78
2022-09-24T03:10:07.105Z,97587.91
2022-09-24T03:15:08.514Z,97588.31
2022-09-24T03:20:09.845Z,97581.75
2022-09-24T03:25:11.170Z,97575.16
2022-09-24T03:30:31.323Z,97578.84
2022-09-24T03:35:32.683Z,97577.59
2022-09-24T03:40:34.053Z,97573.69
2022-09-24T03:45:35.356Z,97575.75
2022-09-24T03:50:37.055Z,97570.56
2022-09-24T03:55:44.490Z,97563.56
2022-09-24T04:00:45.826Z,97555.31
2022-09-24T04:05:47.238Z,97553.41
2022-09-24T04:10:49.522Z,97553.81
2022-09-24T04:15:51.488Z,97556.47
2022-09-24T04:20:57.333Z,97547.84
2022-09-24T04:26:02.460Z,97551.53
2022-09-24T04:31:03.972Z,97550.94
2022-09-24T04:36:05.279Z,97549.88
2022-09-24T04:41:07.754Z,97541.03
2022-09-24T04:46:09.942Z,97552.56
2022-09-24T04:51:11.299Z,97540.00
2022-09-24T04:56:12.704Z,97538.78
2022-09-24T05:01:14.052Z,97529.72
2022-09-24T05:06:15.377Z,97534.66
2022-09-24T05:11:16.732Z,97530.59
2022-09-24T05:16:18.052Z,97545.41
2022-09-24T05:21:19.396Z,97538.81
2022-09-24T05:26:39.518Z,97536.38
2022-09-24T05:31:40.842Z,97541.72
2022-09-24T05:36:45.354Z,97546.28
2022-09-24T05:41:46.661Z,97558.63
2022-09-24T05:46:48.541Z,97559.25
2022-09-24T05:51:50.519Z,97555.53
2022-09-24T05:56:51.789Z,97563.56
2022-09-24T06:01:53.833Z,97562.97
2022-09-24T06:06:56.155Z,97569.16
2022-09-24T06:11:57.469Z,97568.16
2022-09-24T06:16:58.767Z,97573.50
2022-09-24T06:22:00.138Z,97567.31
2022-09-24T06:27:01.457Z,97580.91
2022-09-24T06:32:02.949Z,97571.19
2022-09-24T06:37:04.244Z,97575.09
2022-09-24T06:42:06.440Z,97567.63
2022-09-24T06:47:08.763Z,97563.72
2022-09-24T06:52:11.295Z,97559.16
2022-09-24T06:57:12.745Z,97569.66
2022-09-24T07:02:14.133Z,97571.50
2022-09-24T07:07:32.667Z,97566.72
2022-09-24T07:12:34.736Z,97571.59
2022-09-24T07:17:36.276Z,97570.28
2022-09-24T07:22:41.489Z,97560.25
2022-09-24T07:27:42.965Z,97557.28
2022-09-24T07:32:44.270Z,97560.31
2022-09-24T07:37:45.548Z,97560.78
2022-09-24T07:42:47.903Z,97572.66
2022-09-24T07:47:56.588Z,97572.31
2022-09-24T07:52:57.882Z,97577.94
2022-09-24T07:57:59.147Z,97568.91
2022-09-24T08:03:01.814Z,97566.31
2022-09-24T08:08:03.119Z,97569.53
2022-09-24T08:13:04.401Z,97572.75
2022-09-24T08:18:06.024Z,97573.16
2022-09-24T08:23:09.896Z,97567.75
2022-09-24T08:28:12.197Z,97572.97
2022-09-24T08:33:13.642Z,97573.56
2022-09-24T08:38:15.476Z,97568.34
2022-09-24T08:43:22.889Z,97575.94
2022-09-24T08:48:26.237Z,97572.94
2022-09-24T08:53:39.668Z,97567.50
2022-09-24T08:58:46.535Z,97570.34
2022-09-24T09:04:10.884Z,97564.00
2022-09-24T09:09:17.584Z,97568.59
2022-09-24T09:14:22.341Z,97576.22
2022-09-24T09:19:28.440Z,97581.69
2022-09-24T09:24:39.663Z,97582.66
2022-09-24T09:29:41.906Z,97570.97
2022-09-24T09:34:47.955Z,97562.63
2022-09-24T09:40:07.485Z,97563.41
2022-09-24T09:45:27.668Z,97564.25
2022-09-24T09:50:35.778Z,97562.16
2022-09-24T09:55:37.618Z,97557.31
2022-09-24T10:00:38.971Z,97552.22
2022-09-24T10:05:41.241Z,97556.91
2022-09-24T10:10:55.123Z,97558.13
2022-09-24T10:16:08.606Z,97554.69
2022-09-24T10:21:12.561Z,97564.28
2022-09-24T10:26:14.219Z,97551.25
2022-09-24T10:31:25.186Z,97555.25
2022-09-24T10:36:28.286Z,97551.00
2022-09-24T10:41:30.707Z,97550.91
2022-09-24T10:46:38.132Z,97552.88
2022-09-24T10:51:48.641Z,97544.34
2022-09-24T10:56:53.559Z,97549.75
2022-09-24T11:02:09.502Z,97549.28
2022-09-24T11:07:19.870Z,97547.38
2022-09-24T11:12:27.803Z,97556.00
2022-09-24T11:17:34.194Z,97542.22
2022-09-24T11:22:47.923Z,97543.69
2022-09-24T11:28:08.194Z,97533.19
2022-09-24T11:33:22.872Z,97533.75
2022-09-24T11:38:39.640Z,97539.25
2022-09-24T11:43:40.918Z,97533.50
2022-09-24T11:48:55.383Z,97527.16
2022-09-24T11:54:01.286Z,97530.09
2022-09-24T11:59:07.685Z,97533.00
2022-09-24T12:04:13.469Z,97535.06
2022-09-24T12:09:17.830Z,97523.16
2022-09-24T12:14:25.461Z,97525.09
2022-09-24T12:19:30.667Z,97511.47
2022-09-24T12:24:42.788Z,97513.88
2022-09-24T12:30:09.215Z,97519.88
2022-09-24T12:35:29.457Z,97513.06
2022-09-24T12:40:46.324Z,97517.72
2022-09-24T12:45:52.954Z,97504.00
2022-09-24T12:50:59.115Z,97509.16
2022-09-24T12:56:00.960Z,97501.09
2022-09-24T13:01:25.695Z,97500.13
2022-09-24T13:06:33.458Z,97499.28
2022-09-24T13:11:37.388Z,97498.25
2022-09-24T13:16:40.571Z,97487.78
2022-09-24T13:21:42.342Z,97481.69
2022-09-24T13:26:45.420Z,97490.31
2022-09-24T13:31:49.221Z,97487.75
2022-09-24T13:36:53.829Z,97480.78
2022-09-24T13:42:07.282Z,97480.03
2022-09-24T13:47:27.528Z,97481.88
2022-09-24T13:52:32.361Z,97472.13
2022-09-24T13:57:42.410Z,97472.34
2022-09-24T14:02:51.346Z,97468.81
2022-09-24T14:07:55.130Z,97466.13
2022-09-24T14:13:07.924Z,97469.63
2022-09-24T14:18:14.700Z,97466.47
2022-09-24T14:23:18.932Z,97458.84
2022-09-24T14:28:20.736Z,97468.56
2022-09-24T14:33:25.812Z,97465.38
2022-09-24T14:38:34.257Z,97463.59
2022-09-24T14:43:41.889Z,97467.75
2022-09-24T14:48:44.087Z,97464.13
2022-09-24T14:53:45.378Z,97462.66
2022-09-24T14:58:46.766Z,97461.41
2022-09-24T15:03:52.776Z,97465.03
2022-09-24T15:08:57.868Z,97459.91
2022-09-24T15:14:11.501Z,97457.41
2022-09-24T15:19:17.655Z,97452.69
2022-09-24T15:24:22.704Z,97464.28
2022-09-24T15:29:24.811Z,97466.97
2022-09-24T15:34:26.216Z,97461.56
2022-09-24T15:39:28.102Z,97457.47
2022-09-24T15:44:33.896Z,97469.56
2022-09-24T15:49:35.706Z,97461.94
2022-09-24T15:54:37.014Z,97456.72
2022-09-24T15:59:38.339Z,97460.16
2022-09-24T16:04:39.635Z,97455.25
2022-09-24T16:09:40.972Z,97453.63
2022-09-24T16:14:42.433Z,97457.56
2022-09-24T16:19:43.963Z,97457.91
2022-09-24T16:24:45.257Z,97468.03
2022-09-24T16:29:46.547Z,97467.28
2022-09-24T16:34:48.346Z,97481.81
2022-09-24T16:39:49.651Z,97479.22
2022-09-24T16:44:50.916Z,97488.59
2022-09-24T16:49:52.324Z,97499.53
2022-09-24T16:54:53.634Z,97490.53
2022-09-24T16:59:54.957Z,97495.59
2022-09-24T17:04:59.433Z,97488.44
2022-09-24T17:10:15.404Z,97483.47
2022-09-24T17:15:19.207Z,97490.53
2022-09-24T17:20:21.140Z,97496.34
2022-09-24T17:25:22.415Z,97494.28
2022-09-24T17:30:23.693Z,97495.72
2022-09-24T17:35:24.966Z,97492.00
2022-09-24T17:40:26.741Z,97478.84
2022-09-24T17:45:29.321Z,97486.50
2022-09-24T17:50:32.235Z,97492.50
2022-09-24T17:55:33.515Z,97496.97
2022-09-24T18:00:34.816Z,97504.41
2022-09-24T18:05:36.326Z,97502.63
2022-09-24T18:10:37.608Z,97493.25
2022-09-24T18:15:39.043Z,97497.38
2022-09-24T18:20:41.973Z,97499.25
2022-09-24T18:25:43.490Z,97496.31
2022-09-24T18:30:44.783Z,97504.16
2022-09-24T18:35:46.083Z,97500.13
2022-09-24T18:40:47.555Z,97497.78
2022-09-24T18:45:49.090Z,97506.19
2022-09-24T18:50:50.831Z,97509.22
2022-09-24T18:55:52.504Z,97511.00
2022-09-24T19:00:57.434Z,97508.97
2022-09-24T19:06:03.106Z,97509.88
2022-09-24T19:11:09.078Z,97514.56
2022-09-24T19:16:12.282Z,97511.72
2022-09-24T19:21:14.644Z,97508.91
2022-09-24T19:26:17.916Z,97502.56
2022-09-24T19:31:22.245Z,97504.66
2022-09-24T19:36:23.721Z,97503.91
2022-09-24T19:41:26.312Z,97503.41
2022-09-24T19:46:28.395Z,97508.06
2022-09-24T19:51:31.054Z,97507.28
2022-09-24T19:56:32.933Z,97513.13
2022-09-24T20:01:34.966Z,97510.22
2022-09-24T20:06:37.054Z,97506.72
2022-09-24T20:11:38.337Z,97506.47
2022-09-24T20:16:42.627Z,97512.66
2022-09-24T20:21:44.205Z,97503.56
2022-09-24T20:27:04.276Z,97498.19
2022-09-24T20:32:05.628Z,97504.00
2022-09-24T20:37:07.103Z,97506.47
2022-09-24T20:42:08.425Z,97500.25
2022-09-24T20:47:10.404Z,97509.97
2022-09-24T20:52:12.120Z,97498.19
2022-09-24T20:57:14.100Z,97498.19
2022-09-24T21:02:16.583Z,97498.19
2022-09-24T21:07:18.029Z,97498.38
2022-09-24T21:12:19.869Z,97499.19
2022-09-24T21:17:21.418Z,97498.19
2022-09-24T21:22:24.182Z,97505.28
2022-09-24T21:27:25.727Z,97504.47
2022-09-24T21:32:27.003Z,97500.50
2022-09-24T21:37:28.656Z,97499.19
2022-09-24T21:42:31.802Z,97496.50
2022-09-24T21:47:33.098Z,97496.38
2022-09-24T21:52:34.501Z,97499.97
2022-09-24T21:57:35.771Z,97500.28
2022-09-24T22:02:41.089Z,97491.47
2022-09-24T22:07:45.383Z,97496.69
2022-09-24T22:12:46.718Z,97499.47
2022-09-24T22:17:48.131Z,97496.41
2022-09-24T22:22:49.418Z,97500.81
2022-09-24T22:27:50.688Z,97504.16
2022-09-24T22:32:51.958Z,97493.25
2022-09-24T22:37:53.691Z,97496.63
2022-09-24T22:42:54.961Z,97498.31
2022-09-24T22:47:56.633Z,97484.13
2022-09-24T22:52:57.928Z,97488.28
2022-09-24T22:57:59.197Z,97491.41
2022-09-24T23:03:00.545Z,97490.44
2022-09-24T23:08:01.944Z,97482.44
2022-09-24T23:13:03.236Z,97480.63
2022-09-24T23:18:04.509Z,97476.53
2022-09-24T23:23:05.827Z,97492.22
2022-09-24T23:28:07.099Z,97481.91
2022-09-24T23:33:08.384Z,97474.91
2022-09-24T23:38:09.714Z,97476.16
2022-09-24T23:43:11.001Z,97484.00
2022-09-24T23:48:12.375Z,97481.97
2022-09-24T23:53:14.340Z,97474.13
2022-09-24T23:58:16.682Z,97478.47
